Terminal Aerodrome Forecast
Issued by NWS

Home | Current Version | Previous Version | Text Only | Print | Product List | Glossary On
Versions: 1 2 3 4 5 6 7 8 9 10 11 12 13 14 15 16
000
FTUS44 KCRP 222300
TAFLRD
TAF
KLRD 222326Z 2300/2324 18012KT P6SM VCTS BKN035CB OVC100
      TEMPO 2300/2302 VRB25G35KT 4SM TSRA OVC030CB
     FM230300 25005KT P6SM SCT035 OVC150
      TEMPO 2306/2310 5SM BR SCT001
     FM231500 27012KT P6SM SKC=

USA.gov is the U.S. government's official web portal to all federal, state and local government web resources and services.